Time;durP1;ratioP1;P1;durP2;ratioP2;P2;SDS_P1;SDS_P2;PMS_P1;PMS_P2;Temp;Humidity;BMP_temperature;BMP_pressure;BME280_temperature;BME280_humidity;BME280_pressure;Samples;Min_cycle;Max_cycle;Signal;HPM_P1;HPM_P2
2023/12/06 00:01:53;;;;;;;;;;;17.40;48.10;;;;;;1576919;74;774;-76
2023/12/06 00:03:55;;;;;;;;;;;17.40;48.10;;;;;;1578981;73;1125;-77
2023/12/06 00:05:57;;;;;;;;;;;17.40;48.00;;;;;;1582347;74;713;-78
2023/12/06 00:07:59;;;;;;;;;;;17.40;48.10;;;;;;1591817;73;689;-76
2023/12/06 00:10:01;;;;;;;;;;;17.40;48.10;;;;;;1582078;74;1928;-77
2023/12/06 00:12:03;;;;;;;;;;;17.40;48.10;;;;;;1594643;74;717;-78
2023/12/06 00:14:05;;;;;;;;;;;17.40;48.00;;;;;;1578972;73;1156;-76
2023/12/06 00:16:07;;;;;;;;;;;17.40;48.00;;;;;;1591116;74;1291;-77
2023/12/06 00:18:09;;;;;;;;;;;17.40;48.00;;;;;;1592491;74;689;-77
2023/12/06 00:20:11;;;;;;;;;;;17.40;48.00;;;;;;1585429;74;863;-77
2023/12/06 00:22:13;;;;;;;;;;;17.40;48.00;;;;;;1586386;73;714;-79
2023/12/06 00:24:15;;;;;;;;;;;17.40;48.00;;;;;;1586410;74;1179;-75
2023/12/06 00:26:17;;;;;;;;;;;17.40;48.00;;;;;;1583315;73;717;-76
2023/12/06 00:28:19;;;;;;;;;;;17.40;48.00;;;;;;1581413;74;774;-76
2023/12/06 00:30:20;;;;;;;;;;;17.40;48.00;;;;;;1581277;73;1937;-77
2023/12/06 00:32:23;;;;;;;;;;;17.40;48.00;;;;;;1575155;74;908;-76
2023/12/06 00:34:24;;;;;;;;;;;17.40;48.00;;;;;;1580135;74;1166;-77
2023/12/06 00:36:26;;;;;;;;;;;17.40;48.00;;;;;;1593182;74;720;-77
2023/12/06 00:38:28;;;;;;;;;;;17.40;48.00;;;;;;1583381;73;717;-78
2023/12/06 00:40:30;;;;;;;;;;;17.40;48.00;;;;;;1587069;74;741;-79
2023/12/06 00:42:32;;;;;;;;;;;17.40;48.00;;;;;;1583923;73;716;-77
2023/12/06 00:44:34;;;;;;;;;;;17.40;47.90;;;;;;1587932;73;1526;-77
2023/12/06 00:46:36;;;;;;;;;;;17.40;48.00;;;;;;1591155;73;759;-76
2023/12/06 00:48:37;;;;;;;;;;;17.40;47.90;;;;;;1586885;74;808;-73
2023/12/06 00:50:39;;;;;;;;;;;17.40;47.90;;;;;;1588706;74;1922;-76
2023/12/06 00:52:41;;;;;;;;;;;17.40;47.80;;;;;;1586467;73;645;-77
2023/12/06 00:54:43;;;;;;;;;;;17.40;47.90;;;;;;1580046;73;1085;-77
2023/12/06 00:56:45;;;;;;;;;;;17.40;47.80;;;;;;1583783;74;657;-77
2023/12/06 00:58:47;;;;;;;;;;;17.40;47.90;;;;;;1580467;74;1540;-76
2023/12/06 01:00:49;;;;;;;;;;;17.40;47.90;;;;;;1589978;74;728;-76
2023/12/06 01:02:51;;;;;;;;;;;17.40;47.90;;;;;;1582130;74;719;-77
2023/12/06 01:04:53;;;;;;;;;;;17.40;47.90;;;;;;1584845;74;1113;-76
2023/12/06 01:06:55;;;;;;;;;;;17.40;47.80;;;;;;1583922;74;758;-78
2023/12/06 01:08:57;;;;;;;;;;;17.40;47.80;;;;;;1584822;74;725;-77
2023/12/06 01:10:59;;;;;;;;;;;17.40;47.80;;;;;;1583196;74;1940;-77
2023/12/06 01:13:01;;;;;;;;;;;17.40;47.80;;;;;;1574901;73;1266;-77
2023/12/06 01:15:03;;;;;;;;;;;17.40;47.90;;;;;;1586011;74;1074;-77
2023/12/06 01:17:05;;;;;;;;;;;17.40;47.80;;;;;;1579149;74;744;-77
2023/12/06 01:19:07;;;;;;;;;;;17.40;47.80;;;;;;1570359;73;672;-77
2023/12/06 01:21:09;;;;;;;;;;;17.40;47.90;;;;;;1579480;74;767;-77
2023/12/06 01:23:11;;;;;;;;;;;17.40;47.80;;;;;;1579071;74;798;-77
2023/12/06 01:25:13;;;;;;;;;;;17.40;47.80;;;;;;1583143;74;1188;-75
2023/12/06 01:27:15;;;;;;;;;;;17.40;47.90;;;;;;1571681;74;740;-75
2023/12/06 01:29:17;;;;;;;;;;;17.40;47.90;;;;;;1590304;73;730;-77
2023/12/06 01:31:18;;;;;;;;;;;17.40;47.80;;;;;;1584978;73;1942;-76
2023/12/06 01:33:21;;;;;;;;;;;17.40;47.80;;;;;;1581090;74;665;-77
2023/12/06 01:35:23;;;;;;;;;;;17.40;47.80;;;;;;1583384;73;1191;-75
2023/12/06 01:37:25;;;;;;;;;;;17.40;47.80;;;;;;1580877;73;720;-77
2023/12/06 01:39:26;;;;;;;;;;;17.40;47.80;;;;;;1583937;73;667;-77
2023/12/06 01:41:28;;;;;;;;;;;17.40;47.80;;;;;;1582551;73;753;-77
2023/12/06 01:43:30;;;;;;;;;;;17.40;47.80;;;;;;1579576;73;1180;-80
2023/12/06 01:45:32;;;;;;;;;;;17.40;47.80;;;;;;1577399;73;746;-77
2023/12/06 01:47:34;;;;;;;;;;;17.40;47.80;;;;;;1590271;74;706;-78
2023/12/06 01:49:36;;;;;;;;;;;17.40;47.80;;;;;;1590265;74;700;-77
2023/12/06 01:51:38;;;;;;;;;;;17.40;47.80;;;;;;1581765;73;1946;-77
2023/12/06 01:53:39;;;;;;;;;;;17.40;47.80;;;;;;1587350;74;1161;-78
2023/12/06 01:55:41;;;;;;;;;;;17.40;47.80;;;;;;1590880;74;718;-77
2023/12/06 01:57:43;;;;;;;;;;;17.40;47.80;;;;;;1590232;73;764;-77
2023/12/06 01:59:45;;;;;;;;;;;17.40;47.80;;;;;;1592765;74;754;-78
2023/12/06 02:01:47;;;;;;;;;;;17.40;47.80;;;;;;1577440;74;731;-77
2023/12/06 02:03:49;;;;;;;;;;;17.40;47.80;;;;;;1582957;74;1152;-76
2023/12/06 02:05:51;;;;;;;;;;;17.40;47.80;;;;;;1582921;74;728;-77
2023/12/06 02:07:53;;;;;;;;;;;17.40;47.80;;;;;;1581354;74;691;-77
2023/12/06 02:09:55;;;;;;;;;;;17.40;47.80;;;;;;1593440;73;748;-76
2023/12/06 02:11:57;;;;;;;;;;;17.40;47.80;;;;;;1585256;73;1954;-77
2023/12/06 02:13:58;;;;;;;;;;;17.40;47.80;;;;;;1579999;73;1161;-77
2023/12/06 02:16:00;;;;;;;;;;;17.40;47.80;;;;;;1582871;73;730;-79
2023/12/06 02:18:02;;;;;;;;;;;17.40;47.80;;;;;;1588620;73;750;-77
2023/12/06 02:20:05;;;;;;;;;;;17.40;47.80;;;;;;1581492;74;738;-76
2023/12/06 02:22:07;;;;;;;;;;;17.40;47.80;;;;;;1585478;74;765;-78
2023/12/06 02:24:09;;;;;;;;;;;17.40;47.80;;;;;;1577542;74;1184;-75
2023/12/06 02:26:11;;;;;;;;;;;17.40;47.80;;;;;;1583221;74;729;-79
2023/12/06 02:28:13;;;;;;;;;;;17.40;47.80;;;;;;1590152;74;1406;-74
2023/12/06 02:30:15;;;;;;;;;;;17.40;47.80;;;;;;1582801;73;802;-77
2023/12/06 02:32:17;;;;;;;;;;;17.40;47.80;;;;;;1585043;74;1929;-76
2023/12/06 02:34:20;;;;;;;;;;;17.40;47.80;;;;;;1588446;74;1142;-77
2023/12/06 02:36:22;;;;;;;;;;;17.40;47.80;;;;;;1591157;74;876;-77
2023/12/06 02:38:24;;;;;;;;;;;17.40;47.80;;;;;;1584346;73;706;-79
2023/12/06 02:40:26;;;;;;;;;;;17.40;47.80;;;;;;1588052;74;706;-78
2023/12/06 02:42:28;;;;;;;;;;;17.40;47.80;;;;;;1586694;74;715;-80
2023/12/06 02:44:30;;;;;;;;;;;17.40;47.80;;;;;;1588474;74;1136;-76
2023/12/06 02:46:32;;;;;;;;;;;17.40;47.70;;;;;;1592784;74;692;-78
2023/12/06 02:48:34;;;;;;;;;;;17.40;47.80;;;;;;1578866;74;751;-77
2023/12/06 02:50:35;;;;;;;;;;;17.40;47.80;;;;;;1588365;74;711;-77
2023/12/06 02:52:37;;;;;;;;;;;17.40;47.70;;;;;;1585034;74;1933;-75
2023/12/06 02:54:40;;;;;;;;;;;17.40;47.70;;;;;;1587169;74;1132;-75
2023/12/06 02:56:41;;;;;;;;;;;17.40;47.80;;;;;;1585268;74;740;-76
2023/12/06 02:58:43;;;;;;;;;;;17.40;47.80;;;;;;1590468;73;669;-78
2023/12/06 03:00:45;;;;;;;;;;;17.40;47.80;;;;;;1583137;73;747;-77
2023/12/06 03:02:47;;;;;;;;;;;17.40;47.80;;;;;;1584061;73;732;-76
2023/12/06 03:04:49;;;;;;;;;;;17.40;47.80;;;;;;1582758;73;1153;-76
2023/12/06 03:06:51;;;;;;;;;;;17.40;47.80;;;;;;1576262;74;597;-74
2023/12/06 03:08:53;;;;;;;;;;;17.40;47.80;;;;;;1578412;74;712;-76
2023/12/06 03:10:54;;;;;;;;;;;17.40;47.80;;;;;;1587640;73;690;-76
2023/12/06 03:12:56;;;;;;;;;;;17.40;47.80;;;;;;1575973;74;1944;-78
2023/12/06 03:14:58;;;;;;;;;;;17.40;47.80;;;;;;1578983;74;1131;-78
2023/12/06 03:17:00;;;;;;;;;;;17.40;47.80;;;;;;1579366;74;735;-77
2023/12/06 03:19:02;;;;;;;;;;;17.30;47.80;;;;;;1591567;73;725;-76
2023/12/06 03:21:04;;;;;;;;;;;17.30;47.80;;;;;;1591323;74;730;-76
2023/12/06 03:23:07;;;;;;;;;;;17.30;47.80;;;;;;1586480;74;738;-75
2023/12/06 03:25:09;;;;;;;;;;;17.40;47.80;;;;;;1579496;74;1230;-74
2023/12/06 03:27:11;;;;;;;;;;;17.30;47.80;;;;;;1588404;73;1330;-76
2023/12/06 03:29:12;;;;;;;;;;;17.40;47.80;;;;;;1584519;74;861;-79
2023/12/06 03:31:14;;;;;;;;;;;17.30;47.80;;;;;;1593946;74;1926;-75
2023/12/06 03:33:16;;;;;;;;;;;17.30;47.80;;;;;;1584217;73;667;-75
2023/12/06 03:35:18;;;;;;;;;;;17.30;47.80;;;;;;1581028;73;1097;-77
2023/12/06 03:37:20;;;;;;;;;;;17.30;47.90;;;;;;1593843;74;727;-78
2023/12/06 03:39:22;;;;;;;;;;;17.40;47.80;;;;;;1587739;73;753;-74
2023/12/06 03:41:24;;;;;;;;;;;17.30;47.90;;;;;;1574771;74;707;-75
2023/12/06 03:43:26;;;;;;;;;;;17.30;47.80;;;;;;1581411;74;1117;-74
2023/12/06 03:45:28;;;;;;;;;;;17.30;47.90;;;;;;1576783;73;676;-77
2023/12/06 03:47:29;;;;;;;;;;;17.30;47.90;;;;;;1588451;74;652;-76
2023/12/06 03:49:31;;;;;;;;;;;17.30;47.80;;;;;;1586196;74;749;-76
2023/12/06 03:51:33;;;;;;;;;;;17.30;47.90;;;;;;1583904;73;1921;-76
2023/12/06 03:53:36;;;;;;;;;;;17.30;47.90;;;;;;1592039;73;1202;-77
2023/12/06 03:55:38;;;;;;;;;;;17.30;47.90;;;;;;1578339;74;730;-76
2023/12/06 03:57:39;;;;;;;;;;;17.30;47.90;;;;;;1592559;74;743;-76
2023/12/06 03:59:41;;;;;;;;;;;17.30;47.90;;;;;;1587392;74;701;-76
2023/12/06 04:01:46;;;;;;;;;;;17.30;47.90;;;;;;1583588;73;713;-77
2023/12/06 04:03:48;;;;;;;;;;;17.30;47.90;;;;;;1584688;74;1180;-76
2023/12/06 04:05:50;;;;;;;;;;;17.30;47.90;;;;;;1588134;73;708;-78
2023/12/06 04:07:52;;;;;;;;;;;17.30;47.90;;;;;;1589098;74;677;-77
2023/12/06 04:09:54;;;;;;;;;;;17.30;47.90;;;;;;1582917;74;740;-77
2023/12/06 04:11:56;;;;;;;;;;;17.30;47.90;;;;;;1585740;74;1952;-77
2023/12/06 04:13:57;;;;;;;;;;;17.30;47.90;;;;;;1586263;74;1160;-77
2023/12/06 04:15:59;;;;;;;;;;;17.30;47.80;;;;;;1585097;74;740;-77
2023/12/06 04:18:01;;;;;;;;;;;17.30;47.90;;;;;;1572050;73;734;-78
2023/12/06 04:20:05;;;;;;;;;;;17.30;47.90;;;;;;1577760;73;719;-76
2023/12/06 04:22:07;;;;;;;;;;;17.30;47.90;;;;;;1585375;73;761;-76
2023/12/06 04:24:09;;;;;;;;;;;17.30;47.90;;;;;;1591912;73;1502;-75
2023/12/06 04:26:11;;;;;;;;;;;17.30;47.90;;;;;;1583697;74;737;-77
2023/12/06 04:28:13;;;;;;;;;;;17.30;48.00;;;;;;1584783;74;864;-79
2023/12/06 04:30:14;;;;;;;;;;;17.30;47.90;;;;;;1580643;74;744;-77
2023/12/06 04:32:16;;;;;;;;;;;17.30;48.00;;;;;;1592264;73;1954;-77
2023/12/06 04:34:19;;;;;;;;;;;17.30;47.90;;;;;;1584680;74;1176;-76
2023/12/06 04:36:21;;;;;;;;;;;17.30;47.90;;;;;;1586882;73;732;-76
2023/12/06 04:38:23;;;;;;;;;;;17.30;47.90;;;;;;1586119;73;596;-75
2023/12/06 04:40:25;;;;;;;;;;;17.30;47.90;;;;;;1584647;74;717;-76
2023/12/06 04:42:27;;;;;;;;;;;17.30;47.90;;;;;;1578751;74;720;-78
2023/12/06 04:44:29;;;;;;;;;;;17.30;47.90;;;;;;1578219;73;1155;-75
2023/12/06 04:46:30;;;;;;;;;;;17.30;47.90;;;;;;1580825;73;724;-76
2023/12/06 04:48:32;;;;;;;;;;;17.30;48.00;;;;;;1585884;74;765;-79
2023/12/06 04:50:34;;;;;;;;;;;17.30;48.00;;;;;;1592700;74;769;-78
2023/12/06 04:52:36;;;;;;;;;;;17.30;47.90;;;;;;1582855;74;1925;-77
2023/12/06 04:54:38;;;;;;;;;;;17.20;47.80;;;;;;1579992;74;1168;-75
2023/12/06 04:56:40;;;;;;;;;;;17.30;47.90;;;;;;1583014;74;730;-77
2023/12/06 04:58:42;;;;;;;;;;;17.30;47.90;;;;;;1581593;74;742;-77
2023/12/06 05:00:43;;;;;;;;;;;17.30;47.90;;;;;;1590271;73;755;-76
2023/12/06 05:02:45;;;;;;;;;;;17.30;47.90;;;;;;1585174;74;719;-76
2023/12/06 05:04:47;;;;;;;;;;;17.30;47.90;;;;;;1582991;73;1151;-77
2023/12/06 05:06:49;;;;;;;;;;;17.30;47.90;;;;;;1573597;74;726;-76
2023/12/06 05:08:51;;;;;;;;;;;17.20;47.80;;;;;;1579498;73;806;-76
2023/12/06 05:10:53;;;;;;;;;;;17.30;48.00;;;;;;1587896;74;670;-77
2023/12/06 05:12:56;;;;;;;;;;;17.30;48.00;;;;;;1586602;73;1947;-74
2023/12/06 05:14:58;;;;;;;;;;;17.30;47.90;;;;;;1585099;74;1177;-77
2023/12/06 05:17:00;;;;;;;;;;;17.20;47.80;;;;;;1582750;74;644;-77
2023/12/06 05:19:02;;;;;;;;;;;17.30;47.90;;;;;;1585356;74;1599;-77
2023/12/06 05:21:04;;;;;;;;;;;17.30;47.90;;;;;;1569768;73;680;-76
2023/12/06 05:23:06;;;;;;;;;;;17.30;48.00;;;;;;1578010;74;738;-76
2023/12/06 05:25:08;;;;;;;;;;;17.20;47.80;;;;;;1586955;74;1142;-76
2023/12/06 05:27:10;;;;;;;;;;;17.30;48.00;;;;;;1584172;74;764;-76
2023/12/06 05:29:12;;;;;;;;;;;17.30;48.00;;;;;;1582032;73;816;-77
2023/12/06 05:31:13;;;;;;;;;;;17.30;48.00;;;;;;1582237;74;787;-76
2023/12/06 05:33:16;;;;;;;;;;;17.30;47.90;;;;;;1578402;74;1950;-76
2023/12/06 05:35:18;;;;;;;;;;;17.30;48.00;;;;;;1578283;74;1148;-75
2023/12/06 05:37:20;;;;;;;;;;;17.30;47.90;;;;;;1590235;73;730;-77
2023/12/06 05:39:21;;;;;;;;;;;17.30;48.00;;;;;;1591060;74;752;-76
2023/12/06 05:41:23;;;;;;;;;;;17.30;47.90;;;;;;1584433;73;798;-76
2023/12/06 05:43:25;;;;;;;;;;;17.30;48.00;;;;;;1578613;73;729;-76
2023/12/06 05:45:27;;;;;;;;;;;17.30;48.00;;;;;;1581816;74;764;-76
2023/12/06 05:47:30;;;;;;;;;;;17.30;47.90;;;;;;1576401;74;740;-77
2023/12/06 05:49:32;;;;;;;;;;;17.30;48.00;;;;;;1583005;74;642;-76
2023/12/06 05:51:34;;;;;;;;;;;17.30;48.00;;;;;;1579407;74;705;-75
2023/12/06 05:53:36;;;;;;;;;;;17.30;48.00;;;;;;1582334;74;1934;-76
2023/12/06 05:55:38;;;;;;;;;;;17.30;48.00;;;;;;1583770;74;731;-75
2023/12/06 05:57:39;;;;;;;;;;;17.30;48.00;;;;;;1579205;74;745;-77
2023/12/06 05:59:41;;;;;;;;;;;17.30;48.00;;;;;;1578905;73;744;-75
2023/12/06 06:01:43;;;;;;;;;;;17.30;47.90;;;;;;1576584;74;687;-76
2023/12/06 06:03:45;;;;;;;;;;;17.30;47.90;;;;;;1577166;74;1149;-74
2023/12/06 06:05:47;;;;;;;;;;;17.30;47.90;;;;;;1579885;73;835;-78
2023/12/06 06:07:49;;;;;;;;;;;17.30;47.90;;;;;;1578331;74;736;-75
2023/12/06 06:09:51;;;;;;;;;;;17.30;47.90;;;;;;1589339;73;756;-74
2023/12/06 06:11:53;;;;;;;;;;;17.30;47.90;;;;;;1573160;74;665;-77
2023/12/06 06:13:54;;;;;;;;;;;17.30;47.90;;;;;;1582290;74;1942;-76
2023/12/06 06:15:56;;;;;;;;;;;17.30;47.90;;;;;;1590686;74;1530;-76
2023/12/06 06:17:58;;;;;;;;;;;17.30;47.90;;;;;;1586370;74;730;-77
2023/12/06 06:20:00;;;;;;;;;;;17.30;47.80;;;;;;1583314;74;721;-78
2023/12/06 06:22:02;;;;;;;;;;;17.40;47.90;;;;;;1585561;74;734;-77
2023/12/06 06:24:04;;;;;;;;;;;17.30;47.90;;;;;;1582351;73;1162;-76
2023/12/06 06:26:07;;;;;;;;;;;17.30;47.80;;;;;;1587494;73;719;-76
2023/12/06 06:28:09;;;;;;;;;;;17.40;47.90;;;;;;1588389;74;721;-78
2023/12/06 06:30:11;;;;;;;;;;;17.30;47.80;;;;;;1588698;73;720;-76
2023/12/06 06:32:13;;;;;;;;;;;17.30;47.80;;;;;;1588150;74;735;-76
2023/12/06 06:34:15;;;;;;;;;;;17.40;47.80;;;;;;1595705;74;1898;-77
2023/12/06 06:36:17;;;;;;;;;;;17.40;47.80;;;;;;1578349;74;695;-77
2023/12/06 06:38:19;;;;;;;;;;;17.30;47.80;;;;;;1582856;73;720;-77
2023/12/06 06:40:22;;;;;;;;;;;17.40;47.80;;;;;;1580726;74;701;-76
2023/12/06 06:42:24;;;;;;;;;;;17.40;47.80;;;;;;1582058;74;744;-77
2023/12/06 06:44:28;;;;;;;;;;;17.40;47.80;;;;;;1580129;73;1136;-76
2023/12/06 06:46:29;;;;;;;;;;;17.30;47.80;;;;;;1585938;74;1600;-76
2023/12/06 06:48:31;;;;;;;;;;;17.40;47.80;;;;;;1589179;74;699;-76
2023/12/06 06:50:33;;;;;;;;;;;17.40;47.80;;;;;;1595058;74;841;-78
2023/12/06 06:52:36;;;;;;;;;;;17.30;47.80;;;;;;1579127;74;1926;-75
2023/12/06 06:54:38;;;;;;;;;;;17.40;47.80;;;;;;1584527;74;1100;-76
2023/12/06 06:56:40;;;;;;;;;;;17.40;47.80;;;;;;1584664;73;748;-76
2023/12/06 06:58:42;;;;;;;;;;;17.40;47.80;;;;;;1586323;74;822;-76
2023/12/06 07:00:44;;;;;;;;;;;17.40;47.80;;;;;;1577557;73;645;-78
2023/12/06 07:02:46;;;;;;;;;;;17.40;47.80;;;;;;1596663;74;848;-77
2023/12/06 07:04:48;;;;;;;;;;;17.40;47.80;;;;;;1572642;74;1141;-75
2023/12/06 07:06:50;;;;;;;;;;;17.30;47.80;;;;;;1592754;73;763;-75
2023/12/06 07:08:52;;;;;;;;;;;17.40;47.80;;;;;;1584485;74;777;-75
2023/12/06 07:10:53;;;;;;;;;;;17.30;47.80;;;;;;1588113;74;796;-76
2023/12/06 07:12:55;;;;;;;;;;;17.30;47.80;;;;;;1588064;74;1937;-77
2023/12/06 07:14:57;;;;;;;;;;;17.40;47.80;;;;;;1588108;73;1124;-76
2023/12/06 07:16:59;;;;;;;;;;;17.40;47.80;;;;;;1588632;74;674;-77
2023/12/06 07:19:02;;;;;;;;;;;17.30;47.80;;;;;;1590018;74;736;-78
2023/12/06 07:21:04;;;;;;;;;;;17.40;47.80;;;;;;1590883;74;752;-76
2023/12/06 07:23:07;;;;;;;;;;;17.30;47.80;;;;;;1585243;73;717;-76
2023/12/06 07:25:09;;;;;;;;;;;17.40;47.80;;;;;;1589612;74;1167;-75
2023/12/06 07:27:11;;;;;;;;;;;17.30;47.80;;;;;;1586877;73;770;-76
2023/12/06 07:29:13;;;;;;;;;;;17.30;47.80;;;;;;1593444;74;719;-77
2023/12/06 07:31:15;;;;;;;;;;;17.30;47.80;;;;;;1584270;74;665;-75
2023/12/06 07:33:17;;;;;;;;;;;17.40;47.80;;;;;;1586564;73;1946;-75
2023/12/06 07:35:18;;;;;;;;;;;17.30;47.80;;;;;;1586410;74;1120;-75
2023/12/06 07:37:20;;;;;;;;;;;17.30;47.80;;;;;;1585747;74;732;-75
2023/12/06 07:39:22;;;;;;;;;;;17.30;47.80;;;;;;1586041;73;727;-75
2023/12/06 07:41:24;;;;;;;;;;;17.30;47.80;;;;;;1593694;73;759;-77
2023/12/06 07:43:27;;;;;;;;;;;17.30;47.80;;;;;;1591843;74;697;-76
2023/12/06 07:45:29;;;;;;;;;;;17.30;47.80;;;;;;1597972;73;668;-75
2023/12/06 07:47:31;;;;;;;;;;;17.30;47.80;;;;;;1581471;74;844;-77
2023/12/06 07:49:33;;;;;;;;;;;17.30;47.90;;;;;;1584527;73;622;-75
2023/12/06 07:51:36;;;;;;;;;;;17.30;47.80;;;;;;1585958;73;734;-74
2023/12/06 07:53:38;;;;;;;;;;;17.30;47.80;;;;;;1581225;73;1901;-75
2023/12/06 07:55:40;;;;;;;;;;;17.30;47.90;;;;;;1577511;73;784;-76
2023/12/06 07:57:42;;;;;;;;;;;17.30;47.80;;;;;;1582111;73;682;-76
2023/12/06 07:59:47;;;;;;;;;;;17.30;47.80;;;;;;1585035;74;661;-75
2023/12/06 08:01:48;;;;;;;;;;;17.30;47.80;;;;;;1586229;73;1012;-77
2023/12/06 08:03:50;;;;;;;;;;;17.30;47.80;;;;;;1584772;74;1140;-74
2023/12/06 08:05:52;;;;;;;;;;;17.30;47.80;;;;;;1587987;74;757;-75
2023/12/06 08:07:54;;;;;;;;;;;17.30;47.80;;;;;;1591264;74;1525;-75
2023/12/06 08:09:55;;;;;;;;;;;17.30;47.80;;;;;;1582083;73;730;-76
2023/12/06 08:11:57;;;;;;;;;;;17.30;47.80;;;;;;1578811;74;727;-75
2023/12/06 08:13:59;;;;;;;;;;;18.10;48.30;;;;;;1578817;74;1922;-78
2023/12/06 08:16:01;;;;;;;;;;;17.30;47.90;;;;;;1578529;74;712;-75
2023/12/06 08:18:03;;;;;;;;;;;17.30;47.90;;;;;;1590335;73;732;-75
2023/12/06 08:20:08;;;;;;;;;;;17.30;47.90;;;;;;1578305;74;742;-74
2023/12/06 08:22:10;;;;;;;;;;;17.30;47.80;;;;;;1585944;74;760;-74
2023/12/06 08:24:12;;;;;;;;;;;17.30;47.90;;;;;;1593043;74;1082;-76
2023/12/06 08:26:14;;;;;;;;;;;17.30;47.90;;;;;;1586956;73;658;-76
2023/12/06 08:28:16;;;;;;;;;;;17.30;47.90;;;;;;1592533;74;721;-77
2023/12/06 08:30:18;;;;;;;;;;;17.30;47.90;;;;;;1577591;74;697;-78
2023/12/06 08:32:20;;;;;;;;;;;17.30;47.90;;;;;;1589684;73;718;-77
2023/12/06 08:34:22;;;;;;;;;;;17.30;47.80;;;;;;1590241;73;1952;-75
2023/12/06 08:36:24;;;;;;;;;;;17.30;47.90;;;;;;1591835;74;695;-75
2023/12/06 08:38:26;;;;;;;;;;;17.40;47.90;;;;;;1579435;73;680;-77
2023/12/06 08:40:29;;;;;;;;;;;17.40;47.80;;;;;;1585830;74;780;-76
2023/12/06 08:42:31;;;;;;;;;;;17.40;47.90;;;;;;1580948;73;718;-78
2023/12/06 08:44:32;;;;;;;;;;;17.40;47.90;;;;;;1575599;74;1114;-76
2023/12/06 08:46:34;;;;;;;;;;;17.40;47.80;;;;;;1585819;73;702;-74
2023/12/06 08:48:37;;;;;;;;;;;17.40;47.80;;;;;;1588961;73;726;-76
2023/12/06 08:50:39;;;;;;;;;;;17.40;47.80;;;;;;1571721;74;747;-76
2023/12/06 08:52:42;;;;;;;;;;;17.40;47.80;;;;;;1576826;74;703;-76
2023/12/06 08:54:43;;;;;;;;;;;17.40;47.80;;;;;;1582956;73;2032;-76
2023/12/06 08:56:45;;;;;;;;;;;17.40;47.80;;;;;;1590611;73;698;-75
2023/12/06 08:58:47;;;;;;;;;;;17.40;47.80;;;;;;1582965;73;841;-77
2023/12/06 09:00:49;;;;;;;;;;;17.40;47.80;;;;;;1585026;74;729;-76
2023/12/06 09:02:51;;;;;;;;;;;17.40;47.80;;;;;;1576292;74;728;-76
2023/12/06 09:04:55;;;;;;;;;;;17.40;47.80;;;;;;1582312;73;1546;-75
2023/12/06 09:06:57;;;;;;;;;;;17.40;47.80;;;;;;1582201;74;694;-74
2023/12/06 09:08:58;;;;;;;;;;;17.40;47.70;;;;;;1592318;73;706;-76
2023/12/06 09:11:00;;;;;;;;;;;17.40;47.70;;;;;;1581544;73;765;-73
2023/12/06 09:13:02;;;;;;;;;;;17.40;47.70;;;;;;1588803;74;796;-74
2023/12/06 09:15:05;;;;;;;;;;;17.40;47.80;;;;;;1583808;73;1909;-76
2023/12/06 09:17:06;;;;;;;;;;;17.40;47.70;;;;;;1587568;74;638;-76
2023/12/06 09:19:08;;;;;;;;;;;17.40;47.70;;;;;;1529212;76;797;-76
2023/12/06 09:21:10;;;;;;;;;;;17.40;47.80;;;;;;1535521;76;738;-76
2023/12/06 09:23:12;;;;;;;;;;;17.40;47.70;;;;;;1534418;76;857;-76
2023/12/06 09:25:15;;;;;;;;;;;17.40;47.80;;;;;;1529368;76;1142;-75
2023/12/06 09:27:18;;;;;;;;;;;17.40;47.80;;;;;;1563159;74;732;-76
2023/12/06 09:29:20;;;;;;;;;;;17.40;47.70;;;;;;1555503;75;727;-77
2023/12/06 09:31:22;;;;;;;;;;;17.40;47.70;;;;;;1561115;75;724;-78
2023/12/06 09:33:24;;;;;;;;;;;17.40;47.70;;;;;;1588597;73;713;-74
2023/12/06 09:35:25;;;;;;;;;;;17.40;47.70;;;;;;1584146;74;1219;-76
2023/12/06 09:37:27;;;;;;;;;;;17.40;47.80;;;;;;1582118;73;672;-76
2023/12/06 09:39:29;;;;;;;;;;;17.40;47.70;;;;;;1586666;73;710;-77
2023/12/06 09:41:34;;;;;;;;;;;17.40;47.80;;;;;;1587294;73;733;-78
2023/12/06 09:43:36;;;;;;;;;;;17.40;47.70;;;;;;1594853;73;1155;-75
2023/12/06 09:45:38;;;;;;;;;;;17.40;47.70;;;;;;1580692;73;844;-76
2023/12/06 09:47:40;;;;;;;;;;;17.40;47.70;;;;;;1587511;74;744;-76
2023/12/06 09:49:43;;;;;;;;;;;17.40;47.70;;;;;;1582059;74;706;-78
2023/12/06 09:51:45;;;;;;;;;;;17.40;47.70;;;;;;1584148;73;797;-74
2023/12/06 09:53:46;;;;;;;;;;;17.40;47.70;;;;;;1583467;74;1958;-76
2023/12/06 09:55:48;;;;;;;;;;;17.40;47.70;;;;;;1590823;73;769;-76
2023/12/06 09:57:52;;;;;;;;;;;17.40;47.70;;;;;;1584460;74;782;-77
2023/12/06 09:59:54;;;;;;;;;;;17.40;47.70;;;;;;1580694;74;865;-77
2023/12/06 10:01:56;;;;;;;;;;;17.40;47.70;;;;;;1578559;74;1300;-78
2023/12/06 10:03:58;;;;;;;;;;;17.40;47.70;;;;;;1592295;73;1154;-76
2023/12/06 10:06:05;;;;;;;;;;;17.30;47.70;;;;;;1584958;73;712;-76
2023/12/06 10:08:04;;;;;;;;;;;17.30;47.80;;;;;;1579558;74;1098;-77
2023/12/06 10:10:07;;;;;;;;;;;17.40;47.70;;;;;;1593350;74;724;-76
2023/12/06 10:12:09;;;;;;;;;;;17.40;47.60;;;;;;1593172;74;1702;-76
2023/12/06 10:14:17;;;;;;;;;;;17.40;47.60;;;;;;1579930;74;1946;-76
2023/12/06 10:16:19;;;;;;;;;;;17.40;47.70;;;;;;1587399;73;932;-76
2023/12/06 10:18:21;;;;;;;;;;;17.40;47.70;;;;;;1589898;74;834;-76
2023/12/06 10:20:23;;;;;;;;;;;17.40;47.70;;;;;;1586056;73;689;-77
2023/12/06 10:22:26;;;;;;;;;;;17.40;47.70;;;;;;1552539;75;766;-78
2023/12/06 10:24:28;;;;;;;;;;;17.40;47.70;;;;;;1557515;75;1154;-76
2023/12/06 10:26:31;;;;;;;;;;;17.30;47.70;;;;;;1584426;74;726;-76
2023/12/06 10:28:35;;;;;;;;;;;17.40;47.70;;;;;;1583098;73;721;-77
2023/12/06 10:30:37;;;;;;;;;;;17.40;47.70;;;;;;1577707;74;706;-75
2023/12/06 10:32:39;;;;;;;;;;;17.30;47.70;;;;;;1585407;73;733;-76
2023/12/06 10:34:41;;;;;;;;;;;17.40;47.70;;;;;;1583026;74;1961;-74
2023/12/06 10:36:43;;;;;;;;;;;17.30;47.60;;;;;;1588212;73;733;-75
2023/12/06 10:38:45;;;;;;;;;;;17.40;47.70;;;;;;1590894;74;720;-77
2023/12/06 10:40:47;;;;;;;;;;;17.40;47.70;;;;;;1586566;73;735;-76
2023/12/06 10:42:54;;;;;;;;;;;17.30;47.70;;;;;;1584425;73;721;-78
2023/12/06 10:44:53;;;;;;;;;;;17.40;47.70;;;;;;1589497;74;1153;-77
2023/12/06 10:46:55;;;;;;;;;;;17.30;47.70;;;;;;1576201;74;765;-76
2023/12/06 10:48:59;;;;;;;;;;;17.40;47.70;;;;;;1589581;74;733;-78
2023/12/06 10:51:00;;;;;;;;;;;17.30;47.70;;;;;;1580950;74;694;-75
2023/12/06 10:53:02;;;;;;;;;;;17.30;47.70;;;;;;1580280;73;749;-75
2023/12/06 10:55:04;;;;;;;;;;;17.30;47.70;;;;;;1589876;74;1952;-77
2023/12/06 10:57:06;;;;;;;;;;;17.40;47.70;;;;;;1591676;74;1375;-75
2023/12/06 10:59:10;;;;;;;;;;;17.30;47.70;;;;;;1589142;73;723;-75
2023/12/06 11:01:11;;;;;;;;;;;17.30;47.70;;;;;;1586252;73;759;-78
2023/12/06 11:03:13;;;;;;;;;;;17.30;47.60;;;;;;1582845;73;756;-78
2023/12/06 11:05:15;;;;;;;;;;;17.40;47.70;;;;;;1583195;73;1141;-74
2023/12/06 11:07:25;;;;;;;;;;;17.30;47.70;;;;;;1587846;74;725;-76
2023/12/06 11:09:40;;;;;;;;;;;17.30;47.70;;;;;;1584802;74;595;-75
2023/12/06 11:11:44;;;;;;;;;;;17.30;47.70;;;;;;1568337;73;1152;-76
2023/12/06 11:13:50;;;;;;;;;;;17.30;47.70;;;;;;1586321;74;1098;-75
2023/12/06 11:16:11;;;;;;;;;;;17.40;47.70;;;;;;1586510;74;1950;-76
2023/12/06 11:18:18;;;;;;;;;;;17.40;47.70;;;;;;1583234;74;737;-74
2023/12/06 11:20:19;;;;;;;;;;;17.30;47.70;;;;;;1585636;74;811;-76
2023/12/06 11:22:25;;;;;;;;;;;17.30;47.80;;;;;;1588871;73;809;-76
2023/12/06 11:24:27;;;;;;;;;;;17.40;47.70;;;;;;1586357;73;1105;-75
2023/12/06 11:26:28;;;;;;;;;;;17.40;47.70;;;;;;1582612;73;729;-76
2023/12/06 11:28:30;;;;;;;;;;;17.40;47.70;;;;;;1587897;74;740;-75
2023/12/06 11:30:33;;;;;;;;;;;17.40;47.70;;;;;;1561845;75;1135;-78
2023/12/06 11:32:41;;;;;;;;;;;17.40;47.60;;;;;;1534956;76;644;-76
2023/12/06 11:34:43;;;;;;;;;;;17.40;47.70;;;;;;1531091;76;1920;-74
2023/12/06 11:36:45;;;;;;;;;;;17.50;47.80;;;;;;1526461;76;727;-73
2023/12/06 11:38:47;;;;;;;;;;;17.40;47.60;;;;;;1532029;76;792;-76
2023/12/06 11:40:50;;;;;;;;;;;17.40;47.70;;;;;;1550675;74;704;-76
2023/12/06 11:42:54;;;;;;;;;;;17.40;47.60;;;;;;1554209;75;690;-78
2023/12/06 11:44:56;;;;;;;;;;;17.50;47.70;;;;;;1545221;75;1115;-75
2023/12/06 11:46:58;;;;;;;;;;;17.40;47.60;;;;;;1529449;76;688;-75
2023/12/06 11:48:59;;;;;;;;;;;17.40;47.60;;;;;;1525984;76;805;-77
2023/12/06 11:51:04;;;;;;;;;;;17.50;47.70;;;;;;1554035;75;602;-77
2023/12/06 11:53:06;;;;;;;;;;;17.50;47.70;;;;;;1554274;75;1534;-76
2023/12/06 11:55:08;;;;;;;;;;;17.50;47.70;;;;;;1554240;75;1929;-76
2023/12/06 11:57:11;;;;;;;;;;;17.50;47.70;;;;;;1545479;75;720;-76
2023/12/06 11:59:13;;;;;;;;;;;17.50;47.70;;;;;;1526582;76;820;-75
2023/12/06 12:01:14;;;;;;;;;;;17.50;47.70;;;;;;1523382;76;718;-75
2023/12/06 12:03:16;;;;;;;;;;;17.50;47.70;;;;;;1552478;75;794;-75
2023/12/06 12:05:18;;;;;;;;;;;17.50;47.60;;;;;;1516700;76;1110;-74
2023/12/06 12:07:20;;;;;;;;;;;17.50;47.60;;;;;;1549845;75;757;-76
2023/12/06 12:09:22;;;;;;;;;;;17.50;47.60;;;;;;1529210;76;747;-77